Salisbury Ocean City Wicomico Regional Airport
KSBY : now visible

Airfield :











YOU CAN JOIN US ON...

 
LOGIN :

Register | Disclaimer

   EN    FR    IT 

 









Legend :    VFR   Marginal VFR   IFR   Intensive IFR   Very Intensive IFR
Visi :
Ceiling :
>= 8 km
>= 3000ft
5 to 8 km
1000 to 3000 ft
1500m to 5 km
500 to 1000 ft
800 to 1500m
200 to 500 ft
< 800m
< 200 ft
Symbols :   Thunderstorms  Fog  Heavy snow  Heavy precipitations  Wind > 20 kt






- Airport Elevation : 52 ft
- IATA code : SBY


KSBY - Salisbury Ocean City Wicomico Regional

CURRENT METAR :
  • 221554Z 12010KT 10SM BKN005 OVC015 19/17 A2997 RMK AO2 SLP150 T01890167

EXPIRED METARs :
  • 221542Z 16005KT 6SM BR BKN005 BKN009 OVC015 18/17 A2999 RMK AO2 T01830167
  • 221524Z 15003KT 2SM BR OVC005 18/16 A2999 RMK AO2 T01780161
  • 221454Z 14008KT 8SM OVC005 18/16 A2999 RMK AO2 SLP157 T01780161 58006
  • 221354Z 16003KT 10SM OVC005 17/16 A3001 RMK AO2 SLP165 T01720156

TAF KSBY
Valid from the 22 at 15:00 until the 23 at 12:00 UTC


221525Z 2215/2312 15007KT P6SM OVC005
FM221700 15009KT P6SM OVC010
FM222100 15011KT 6SM -SHRA SCT007 OVC015
FM222300 18010KT 4SM SHRA OVC007
FM230200 23007KT 3SM -RADZ BR SCT003 OVC005
FM230500 30008KT P6SM OVC035



MET'MAP, your aeronautical weather chart ! - Copyright ORBIFLY December 2007 - Disclaimer

ORBIFLY MET'MAP TEAM :

Programming & Development : Alexandra Zaïnal
Concept & Development : Baudouin d'Aumeries
Co-Development & Prog : Marc-Olivier Méhu
Technical & hardware support : Manuel Goepfert

Contact : metmap@orbifly.com




SOURCES & CREDITS :

   NOAA       Earth
Advisory